Terminal Aerodrome Forecast
Issued by NWS Shreveport, LA

Home | Current Version | Previous Version | Text Only | Print | Product List | Glossary On
Versions: 1 2 3 4 5 6 7 8 9 10 11 12
000
FTUS44 KSHV 041751
TAFTXK
TAF
KTXK 041751Z 0418/0518 21008KT P6SM SCT060 BKN120 BKN250
     FM042000 21008KT P6SM VCSH BKN070 BKN250
     FM050100 15005KT P6SM SCT150 BKN250
     FM051400 22008KT P6SM BKN130=

USA.gov is the U.S. government's official web portal to all federal, state and local government web resources and services.